This is the latest recevied weather packets stored in our database for station/object K5FEP. If no packets are shown the sender has not sent any weather packets the latest 10 day(s).
| Time | Temp. | Humidity | Pressure | Rain* | Wind** | Luminosity | Snow |
|---|---|---|---|---|---|---|---|
| 1777920538 | 25.56° C | 28% | 1013.1 hPa | 0 mm | - | 569 W/m² | - |
| 1777920234 | 25.56° C | 29% | 1013 hPa | 0 mm | - | 1122 W/m² | - |
| 1777919930 | 25° C | 29% | 1013.3 hPa | 0 mm | - | 962 W/m² | - |
| 1777919628 | 25° C | 28% | 1013.1 hPa | 0 mm | - | 937 W/m² | - |
| 1777919325 | 25° C | 29% | 1013.1 hPa | 0 mm | - | 927 W/m² | - |
| 1777919023 | 24.44° C | 28% | 1013.3 hPa | 0 mm | - | 927 W/m² | - |
| 1777918719 | 24.44° C | 27% | 1013.5 hPa | 0 mm | - | 938 W/m² | - |
| 1777918417 | 24.44° C | 26% | 1013.6 hPa | 0 mm | - | 945 W/m² | - |
| 1777918116 | 24.44° C | 28% | 1013.7 hPa | 0 mm | - | 947 W/m² | - |
| 1777917814 | 25° C | 30% | 1013.4 hPa | 0 mm | - | 956 W/m² | - |
| 1777917512 | 24.44° C | 28% | 1013.5 hPa | 0 mm | - | 961 W/m² | - |
| 1777917208 | 23.89° C | 27% | 1013.6 hPa | 0 mm | - | 962 W/m² | - |
| 1777916907 | 23.89° C | 28% | 1013.4 hPa | 0 mm | - | 971 W/m² | - |
| 1777916604 | 23.89° C | 27% | 1013.6 hPa | 0 mm | - | 974 W/m² | - |
| 1777916300 | 23.89° C | 29% | 1013.6 hPa | 0 mm | - | 976 W/m² | - |
| 1777915997 | 23.33° C | 27% | 1013.8 hPa | 0 mm | - | 980 W/m² | - |
| 1777915694 | 23.33° C | 30% | 1014 hPa | 0 mm | - | 983 W/m² | - |
| 1777915391 | 23.33° C | 28% | 1014 hPa | 0 mm | - | 984 W/m² | - |
| 1777915086 | 23.33° C | 30% | 1014.1 hPa | 0 mm | - | 987 W/m² | - |
| 1777914784 | 23.33° C | 27% | 1014.2 hPa | 0 mm | - | 985 W/m² | - |
| 1777914481 | 23.33° C | 31% | 1014.2 hPa | 0 mm | - | 989 W/m² | - |
| 1777914178 | 23.33° C | 27% | 1014.3 hPa | 0 mm | - | 297 W/m² | - |
| 1777913874 | 22.78° C | 27% | 1014.7 hPa | 0 mm | - | 993 W/m² | - |
| 1777913571 | 22.78° C | 27% | 1014.7 hPa | 0 mm | - | 983 W/m² | - |
| 1777913267 | 22.22° C | 26% | 1014.8 hPa | 0 mm | - | 985 W/m² | - |
* Rain latest hour (hover to see other rain measurements)
** Current wind speed in m/s (hover to see current wind gust speed)